sensor_id;sensor_type;location;lat;lon;timestamp;temperature;humidity
5554;DHT22;2800;49.528;8.666;2023-04-24T00:01:24;11.50;99.90
5554;DHT22;2800;49.528;8.666;2023-04-24T00:03:49;11.50;99.90
5554;DHT22;2800;49.528;8.666;2023-04-24T00:06:15;11.50;99.90
5554;DHT22;2800;49.528;8.666;2023-04-24T00:08:42;11.50;99.90
5554;DHT22;2800;49.528;8.666;2023-04-24T00:11:08;11.50;99.90
5554;DHT22;2800;49.528;8.666;2023-04-24T00:13:35;11.50;99.90
5554;DHT22;2800;49.528;8.666;2023-04-24T00:16:00;11.50;99.90
5554;DHT22;2800;49.528;8.666;2023-04-24T00:18:26;11.50;99.90
5554;DHT22;2800;49.528;8.666;2023-04-24T00:20:51;11.50;99.90
5554;DHT22;2800;49.528;8.666;2023-04-24T00:23:17;11.50;99.90
5554;DHT22;2800;49.528;8.666;2023-04-24T00:25:42;11.50;99.90
5554;DHT22;2800;49.528;8.666;2023-04-24T00:28:08;11.50;99.90
5554;DHT22;2800;49.528;8.666;2023-04-24T00:30:33;11.50;99.90
5554;DHT22;2800;49.528;8.666;2023-04-24T00:32:59;11.50;99.90
5554;DHT22;2800;49.528;8.666;2023-04-24T00:35:24;11.50;99.90
5554;DHT22;2800;49.528;8.666;2023-04-24T00:37:50;11.50;99.90
5554;DHT22;2800;49.528;8.666;2023-04-24T00:40:15;11.50;99.90
5554;DHT22;2800;49.528;8.666;2023-04-24T00:42:41;11.50;99.90
5554;DHT22;2800;49.528;8.666;2023-04-24T00:45:08;11.50;99.90
5554;DHT22;2800;49.528;8.666;2023-04-24T00:47:34;11.40;99.90
5554;DHT22;2800;49.528;8.666;2023-04-24T00:50:04;11.50;99.90
5554;DHT22;2800;49.528;8.666;2023-04-24T00:52:30;11.50;99.90
5554;DHT22;2800;49.528;8.666;2023-04-24T00:54:57;11.40;99.90
5554;DHT22;2800;49.528;8.666;2023-04-24T00:57:22;11.40;99.90
5554;DHT22;2800;49.528;8.666;2023-04-24T00:59:49;11.40;99.90
5554;DHT22;2800;49.528;8.666;2023-04-24T01:02:15;11.40;99.90
5554;DHT22;2800;49.528;8.666;2023-04-24T01:04:40;11.40;99.90
5554;DHT22;2800;49.528;8.666;2023-04-24T01:07:06;11.50;99.90
5554;DHT22;2800;49.528;8.666;2023-04-24T01:09:40;11.50;99.90
5554;DHT22;2800;49.528;8.666;2023-04-24T01:12:07;11.50;99.90
5554;DHT22;2800;49.528;8.666;2023-04-24T01:14:33;11.50;99.90
5554;DHT22;2800;49.528;8.666;2023-04-24T01:16:58;11.50;99.90
5554;DHT22;2800;49.528;8.666;2023-04-24T01:19:24;11.50;99.90
5554;DHT22;2800;49.528;8.666;2023-04-24T01:21:53;11.50;99.90
5554;DHT22;2800;49.528;8.666;2023-04-24T01:24:19;11.50;99.90
5554;DHT22;2800;49.528;8.666;2023-04-24T01:26:46;11.50;99.90
5554;DHT22;2800;49.528;8.666;2023-04-24T01:29:11;11.40;99.90
5554;DHT22;2800;49.528;8.666;2023-04-24T01:31:38;11.50;99.90
5554;DHT22;2800;49.528;8.666;2023-04-24T01:34:04;11.40;99.90
5554;DHT22;2800;49.528;8.666;2023-04-24T01:36:30;11.40;99.90
5554;DHT22;2800;49.528;8.666;2023-04-24T01:38:56;11.40;99.90
5554;DHT22;2800;49.528;8.666;2023-04-24T01:41:23;11.30;99.90
5554;DHT22;2800;49.528;8.666;2023-04-24T01:43:49;11.30;99.90
5554;DHT22;2800;49.528;8.666;2023-04-24T01:46:15;11.30;99.90
5554;DHT22;2800;49.528;8.666;2023-04-24T01:48:41;11.30;99.90
5554;DHT22;2800;49.528;8.666;2023-04-24T01:51:07;11.30;99.90
5554;DHT22;2800;49.528;8.666;2023-04-24T01:53:32;11.30;99.90
5554;DHT22;2800;49.528;8.666;2023-04-24T01:55:58;11.30;99.90
5554;DHT22;2800;49.528;8.666;2023-04-24T01:58:23;11.30;99.90
5554;DHT22;2800;49.528;8.666;2023-04-24T02:00:50;11.30;99.90
5554;DHT22;2800;49.528;8.666;2023-04-24T02:03:15;11.30;99.90
5554;DHT22;2800;49.528;8.666;2023-04-24T02:05:44;11.30;99.90
5554;DHT22;2800;49.528;8.666;2023-04-24T02:08:09;11.40;99.90
5554;DHT22;2800;49.528;8.666;2023-04-24T02:10:35;11.40;99.90
5554;DHT22;2800;49.528;8.666;2023-04-24T02:13:01;11.30;99.90
5554;DHT22;2800;49.528;8.666;2023-04-24T02:15:26;11.40;99.90
5554;DHT22;2800;49.528;8.666;2023-04-24T02:17:52;11.30;99.90
5554;DHT22;2800;49.528;8.666;2023-04-24T02:20:17;11.40;99.90
5554;DHT22;2800;49.528;8.666;2023-04-24T02:22:43;11.40;99.90
5554;DHT22;2800;49.528;8.666;2023-04-24T02:25:08;11.40;99.90
5554;DHT22;2800;49.528;8.666;2023-04-24T02:27:34;11.30;99.90
5554;DHT22;2800;49.528;8.666;2023-04-24T02:30:00;11.30;99.90
5554;DHT22;2800;49.528;8.666;2023-04-24T02:32:25;11.30;99.90
5554;DHT22;2800;49.528;8.666;2023-04-24T02:34:51;11.30;99.90
5554;DHT22;2800;49.528;8.666;2023-04-24T02:37:17;11.30;99.90
5554;DHT22;2800;49.528;8.666;2023-04-24T02:39:42;11.30;99.90
5554;DHT22;2800;49.528;8.666;2023-04-24T02:42:08;11.30;99.90
5554;DHT22;2800;49.528;8.666;2023-04-24T02:44:33;11.30;99.90
5554;DHT22;2800;49.528;8.666;2023-04-24T02:46:59;11.30;99.90
5554;DHT22;2800;49.528;8.666;2023-04-24T02:49:24;11.30;99.90
5554;DHT22;2800;49.528;8.666;2023-04-24T02:51:51;11.30;99.90
5554;DHT22;2800;49.528;8.666;2023-04-24T02:54:16;11.30;99.90
5554;DHT22;2800;49.528;8.666;2023-04-24T02:56:42;11.30;99.90
5554;DHT22;2800;49.528;8.666;2023-04-24T02:59:07;11.30;99.90
5554;DHT22;2800;49.528;8.666;2023-04-24T03:01:33;11.20;99.90
5554;DHT22;2800;49.528;8.666;2023-04-24T03:03:58;11.20;99.90
5554;DHT22;2800;49.528;8.666;2023-04-24T03:06:24;11.00;99.90
5554;DHT22;2800;49.528;8.666;2023-04-24T03:08:50;10.70;99.90
5554;DHT22;2800;49.528;8.666;2023-04-24T03:11:15;10.50;99.90
5554;DHT22;2800;49.528;8.666;2023-04-24T03:13:41;10.40;99.90
5554;DHT22;2800;49.528;8.666;2023-04-24T03:16:06;10.20;99.90
5554;DHT22;2800;49.528;8.666;2023-04-24T03:18:31;10.10;99.90
5554;DHT22;2800;49.528;8.666;2023-04-24T03:20:57;10.10;99.90
5554;DHT22;2800;49.528;8.666;2023-04-24T03:23:23;10.10;99.90
5554;DHT22;2800;49.528;8.666;2023-04-24T03:25:48;10.00;99.90
5554;DHT22;2800;49.528;8.666;2023-04-24T03:28:15;10.00;99.90
5554;DHT22;2800;49.528;8.666;2023-04-24T03:30:40;9.90;99.90
5554;DHT22;2800;49.528;8.666;2023-04-24T03:33:06;9.80;99.90
5554;DHT22;2800;49.528;8.666;2023-04-24T03:35:31;9.80;99.90
5554;DHT22;2800;49.528;8.666;2023-04-24T03:37:57;9.80;99.90
5554;DHT22;2800;49.528;8.666;2023-04-24T03:40:22;9.80;99.90
5554;DHT22;2800;49.528;8.666;2023-04-24T03:42:48;9.80;99.90
5554;DHT22;2800;49.528;8.666;2023-04-24T03:45:13;9.70;99.90
5554;DHT22;2800;49.528;8.666;2023-04-24T03:47:39;9.80;99.90
5554;DHT22;2800;49.528;8.666;2023-04-24T03:50:05;9.70;99.90
5554;DHT22;2800;49.528;8.666;2023-04-24T03:52:30;9.70;99.90
5554;DHT22;2800;49.528;8.666;2023-04-24T03:54:56;9.70;99.90
5554;DHT22;2800;49.528;8.666;2023-04-24T03:57:21;9.70;99.90
5554;DHT22;2800;49.528;8.666;2023-04-24T03:59:47;9.70;99.90
5554;DHT22;2800;49.528;8.666;2023-04-24T04:02:12;9.70;99.90
5554;DHT22;2800;49.528;8.666;2023-04-24T04:04:38;9.70;99.90
5554;DHT22;2800;49.528;8.666;2023-04-24T04:07:03;9.60;99.90
5554;DHT22;2800;49.528;8.666;2023-04-24T04:09:30;9.60;99.90
5554;DHT22;2800;49.528;8.666;2023-04-24T04:11:56;9.60;99.90
5554;DHT22;2800;49.528;8.666;2023-04-24T04:14:22;9.60;99.90
5554;DHT22;2800;49.528;8.666;2023-04-24T04:16:48;9.50;99.90
5554;DHT22;2800;49.528;8.666;2023-04-24T04:19:14;9.50;99.90
5554;DHT22;2800;49.528;8.666;2023-04-24T04:21:39;9.50;99.90
5554;DHT22;2800;49.528;8.666;2023-04-24T04:24:05;9.50;99.90
5554;DHT22;2800;49.528;8.666;2023-04-24T04:26:31;9.50;99.90
5554;DHT22;2800;49.528;8.666;2023-04-24T04:28:58;9.50;99.90
5554;DHT22;2800;49.528;8.666;2023-04-24T04:31:23;9.50;99.90
5554;DHT22;2800;49.528;8.666;2023-04-24T04:33:50;9.40;99.90
5554;DHT22;2800;49.528;8.666;2023-04-24T04:36:15;9.30;99.90
5554;DHT22;2800;49.528;8.666;2023-04-24T04:38:42;9.30;99.90
5554;DHT22;2800;49.528;8.666;2023-04-24T04:41:08;9.30;99.90
5554;DHT22;2800;49.528;8.666;2023-04-24T04:43:33;9.30;99.90
5554;DHT22;2800;49.528;8.666;2023-04-24T04:46:00;9.20;99.90
5554;DHT22;2800;49.528;8.666;2023-04-24T04:48:26;9.20;99.90
5554;DHT22;2800;49.528;8.666;2023-04-24T04:50:52;9.10;99.90
5554;DHT22;2800;49.528;8.666;2023-04-24T04:53:18;9.10;99.90
5554;DHT22;2800;49.528;8.666;2023-04-24T04:55:43;9.10;99.90
5554;DHT22;2800;49.528;8.666;2023-04-24T04:58:09;9.10;99.90
5554;DHT22;2800;49.528;8.666;2023-04-24T05:00:34;9.10;99.90
5554;DHT22;2800;49.528;8.666;2023-04-24T05:03:02;9.10;99.90
5554;DHT22;2800;49.528;8.666;2023-04-24T05:05:28;9.00;99.90
5554;DHT22;2800;49.528;8.666;2023-04-24T05:07:54;9.10;99.90
5554;DHT22;2800;49.528;8.666;2023-04-24T05:10:20;9.20;99.90
5554;DHT22;2800;49.528;8.666;2023-04-24T05:12:45;9.20;99.90
5554;DHT22;2800;49.528;8.666;2023-04-24T05:15:11;9.20;99.90
5554;DHT22;2800;49.528;8.666;2023-04-24T05:17:36;9.20;99.90
5554;DHT22;2800;49.528;8.666;2023-04-24T05:20:03;9.20;99.90
5554;DHT22;2800;49.528;8.666;2023-04-24T05:22:31;9.20;99.90
5554;DHT22;2800;49.528;8.666;2023-04-24T05:24:56;9.20;99.90
5554;DHT22;2800;49.528;8.666;2023-04-24T05:27:22;9.20;99.90
5554;DHT22;2800;49.528;8.666;2023-04-24T05:29:48;9.20;99.90
5554;DHT22;2800;49.528;8.666;2023-04-24T05:32:13;9.20;99.90
5554;DHT22;2800;49.528;8.666;2023-04-24T05:34:39;9.30;99.90
5554;DHT22;2800;49.528;8.666;2023-04-24T05:37:04;9.40;99.90
5554;DHT22;2800;49.528;8.666;2023-04-24T05:39:33;9.70;99.90
5554;DHT22;2800;49.528;8.666;2023-04-24T05:41:59;9.80;99.90
5554;DHT22;2800;49.528;8.666;2023-04-24T05:44:26;10.00;99.90
5554;DHT22;2800;49.528;8.666;2023-04-24T05:46:52;9.90;99.90
5554;DHT22;2800;49.528;8.666;2023-04-24T05:49:17;9.80;99.90
5554;DHT22;2800;49.528;8.666;2023-04-24T05:51:43;9.70;99.90
5554;DHT22;2800;49.528;8.666;2023-04-24T05:54:08;9.70;99.90
5554;DHT22;2800;49.528;8.666;2023-04-24T05:56:34;9.80;99.90
5554;DHT22;2800;49.528;8.666;2023-04-24T05:58:59;9.90;99.90
5554;DHT22;2800;49.528;8.666;2023-04-24T06:01:25;9.80;99.90
5554;DHT22;2800;49.528;8.666;2023-04-24T06:03:50;9.80;99.90
5554;DHT22;2800;49.528;8.666;2023-04-24T06:06:16;9.80;99.90
5554;DHT22;2800;49.528;8.666;2023-04-24T06:08:41;9.70;99.90
5554;DHT22;2800;49.528;8.666;2023-04-24T06:11:09;9.80;99.90
5554;DHT22;2800;49.528;8.666;2023-04-24T06:13:35;10.20;99.90
5554;DHT22;2800;49.528;8.666;2023-04-24T06:16:00;10.40;99.90
5554;DHT22;2800;49.528;8.666;2023-04-24T06:18:26;10.30;99.90
5554;DHT22;2800;49.528;8.666;2023-04-24T06:20:51;10.10;99.90
5554;DHT22;2800;49.528;8.666;2023-04-24T06:23:17;10.00;99.90
5554;DHT22;2800;49.528;8.666;2023-04-24T06:25:42;9.90;99.90
5554;DHT22;2800;49.528;8.666;2023-04-24T06:28:08;9.90;99.90
5554;DHT22;2800;49.528;8.666;2023-04-24T06:30:33;9.90;99.90
5554;DHT22;2800;49.528;8.666;2023-04-24T06:32:59;9.90;99.90
5554;DHT22;2800;49.528;8.666;2023-04-24T06:35:24;9.80;99.90
5554;DHT22;2800;49.528;8.666;2023-04-24T06:37:51;9.80;99.90
5554;DHT22;2800;49.528;8.666;2023-04-24T06:40:16;9.70;99.90
5554;DHT22;2800;49.528;8.666;2023-04-24T06:42:43;9.70;99.90
5554;DHT22;2800;49.528;8.666;2023-04-24T06:45:09;9.80;99.90
5554;DHT22;2800;49.528;8.666;2023-04-24T06:47:35;9.60;99.90
5554;DHT22;2800;49.528;8.666;2023-04-24T06:50:00;9.60;99.90
5554;DHT22;2800;49.528;8.666;2023-04-24T06:52:26;9.60;99.90
5554;DHT22;2800;49.528;8.666;2023-04-24T06:54:51;9.50;99.90
5554;DHT22;2800;49.528;8.666;2023-04-24T06:57:17;9.50;99.90
5554;DHT22;2800;49.528;8.666;2023-04-24T06:59:43;9.40;99.90
5554;DHT22;2800;49.528;8.666;2023-04-24T07:02:08;9.40;99.90
5554;DHT22;2800;49.528;8.666;2023-04-24T07:04:34;9.30;99.90
5554;DHT22;2800;49.528;8.666;2023-04-24T07:07:00;9.20;99.90
5554;DHT22;2800;49.528;8.666;2023-04-24T07:09:26;9.20;99.90
5554;DHT22;2800;49.528;8.666;2023-04-24T07:11:52;9.20;99.90
5554;DHT22;2800;49.528;8.666;2023-04-24T07:14:19;9.20;99.90
5554;DHT22;2800;49.528;8.666;2023-04-24T07:16:44;9.20;99.90
5554;DHT22;2800;49.528;8.666;2023-04-24T07:19:10;9.20;99.90
5554;DHT22;2800;49.528;8.666;2023-04-24T07:21:36;9.30;99.90
5554;DHT22;2800;49.528;8.666;2023-04-24T07:24:01;9.30;99.90
5554;DHT22;2800;49.528;8.666;2023-04-24T07:26:29;9.40;99.90
5554;DHT22;2800;49.528;8.666;2023-04-24T07:28:54;9.40;99.90
5554;DHT22;2800;49.528;8.666;2023-04-24T07:31:20;9.40;99.90
5554;DHT22;2800;49.528;8.666;2023-04-24T07:33:47;9.70;99.90
5554;DHT22;2800;49.528;8.666;2023-04-24T07:36:12;9.80;99.90
5554;DHT22;2800;49.528;8.666;2023-04-24T07:38:45;10.00;99.90
5554;DHT22;2800;49.528;8.666;2023-04-24T07:41:10;10.60;99.90
5554;DHT22;2800;49.528;8.666;2023-04-24T07:43:36;10.50;99.90
5554;DHT22;2800;49.528;8.666;2023-04-24T07:46:01;10.30;99.90
5554;DHT22;2800;49.528;8.666;2023-04-24T07:48:27;9.80;99.90
5554;DHT22;2800;49.528;8.666;2023-04-24T07:50:53;9.80;99.90
5554;DHT22;2800;49.528;8.666;2023-04-24T07:53:18;9.70;99.90
5554;DHT22;2800;49.528;8.666;2023-04-24T07:55:44;9.80;99.90
5554;DHT22;2800;49.528;8.666;2023-04-24T07:58:09;9.90;99.90
5554;DHT22;2800;49.528;8.666;2023-04-24T08:00:35;9.90;99.90
5554;DHT22;2800;49.528;8.666;2023-04-24T08:03:01;9.80;99.90
5554;DHT22;2800;49.528;8.666;2023-04-24T08:05:27;10.10;99.90
5554;DHT22;2800;49.528;8.666;2023-04-24T08:07:54;10.60;99.90
5554;DHT22;2800;49.528;8.666;2023-04-24T08:10:21;10.40;99.90
5554;DHT22;2800;49.528;8.666;2023-04-24T08:12:47;10.50;99.90
5554;DHT22;2800;49.528;8.666;2023-04-24T08:15:13;10.60;99.90
5554;DHT22;2800;49.528;8.666;2023-04-24T08:17:38;10.40;99.90
5554;DHT22;2800;49.528;8.666;2023-04-24T08:20:05;10.10;99.90
5554;DHT22;2800;49.528;8.666;2023-04-24T08:22:31;10.30;99.90
5554;DHT22;2800;49.528;8.666;2023-04-24T08:24:59;10.30;99.90
5554;DHT22;2800;49.528;8.666;2023-04-24T08:27:26;10.40;99.90
5554;DHT22;2800;49.528;8.666;2023-04-24T08:29:53;10.40;99.90
5554;DHT22;2800;49.528;8.666;2023-04-24T08:32:19;10.50;99.90
5554;DHT22;2800;49.528;8.666;2023-04-24T08:34:44;10.60;99.90
5554;DHT22;2800;49.528;8.666;2023-04-24T08:37:10;10.50;99.90
5554;DHT22;2800;49.528;8.666;2023-04-24T08:39:36;10.50;99.90
5554;DHT22;2800;49.528;8.666;2023-04-24T08:42:02;10.50;99.90
5554;DHT22;2800;49.528;8.666;2023-04-24T08:44:33;10.50;99.90
5554;DHT22;2800;49.528;8.666;2023-04-24T08:46:59;10.60;99.90
5554;DHT22;2800;49.528;8.666;2023-04-24T08:49:27;10.60;99.90
5554;DHT22;2800;49.528;8.666;2023-04-24T08:51:53;10.80;99.90
5554;DHT22;2800;49.528;8.666;2023-04-24T08:54:19;11.10;99.90
5554;DHT22;2800;49.528;8.666;2023-04-24T08:56:45;11.30;99.90
5554;DHT22;2800;49.528;8.666;2023-04-24T08:59:13;11.30;99.90
5554;DHT22;2800;49.528;8.666;2023-04-24T09:01:40;11.20;99.90
5554;DHT22;2800;49.528;8.666;2023-04-24T09:04:07;11.20;99.90
5554;DHT22;2800;49.528;8.666;2023-04-24T09:06:34;11.10;99.90
5554;DHT22;2800;49.528;8.666;2023-04-24T09:09:00;11.10;99.90
5554;DHT22;2800;49.528;8.666;2023-04-24T09:11:27;11.10;99.90
5554;DHT22;2800;49.528;8.666;2023-04-24T09:13:53;11.00;99.90
5554;DHT22;2800;49.528;8.666;2023-04-24T09:16:19;10.90;99.90
5554;DHT22;2800;49.528;8.666;2023-04-24T09:18:45;10.80;99.90
5554;DHT22;2800;49.528;8.666;2023-04-24T09:21:11;10.70;99.90
5554;DHT22;2800;49.528;8.666;2023-04-24T09:23:37;10.70;99.90
5554;DHT22;2800;49.528;8.666;2023-04-24T09:26:03;10.60;99.90
5554;DHT22;2800;49.528;8.666;2023-04-24T09:28:36;10.50;99.90
5554;DHT22;2800;49.528;8.666;2023-04-24T09:31:04;10.40;99.90
5554;DHT22;2800;49.528;8.666;2023-04-24T09:33:30;10.40;99.90
5554;DHT22;2800;49.528;8.666;2023-04-24T09:35:56;10.40;99.90
5554;DHT22;2800;49.528;8.666;2023-04-24T09:38:32;10.50;99.90
5554;DHT22;2800;49.528;8.666;2023-04-24T09:41:06;10.50;99.90
5554;DHT22;2800;49.528;8.666;2023-04-24T09:43:32;10.60;99.90
5554;DHT22;2800;49.528;8.666;2023-04-24T09:46:00;10.70;99.90
5554;DHT22;2800;49.528;8.666;2023-04-24T09:48:38;10.70;99.90
5554;DHT22;2800;49.528;8.666;2023-04-24T09:51:05;10.80;99.90
5554;DHT22;2800;49.528;8.666;2023-04-24T09:53:32;10.90;99.90
5554;DHT22;2800;49.528;8.666;2023-04-24T09:56:10;11.00;99.90
5554;DHT22;2800;49.528;8.666;2023-04-24T09:58:37;10.90;99.90
5554;DHT22;2800;49.528;8.666;2023-04-24T10:01:03;10.80;99.90
5554;DHT22;2800;49.528;8.666;2023-04-24T10:03:33;10.70;99.90
5554;DHT22;2800;49.528;8.666;2023-04-24T10:06:02;10.60;99.90
5554;DHT22;2800;49.528;8.666;2023-04-24T10:08:34;10.70;99.90
5554;DHT22;2800;49.528;8.666;2023-04-24T10:11:01;10.60;99.90
5554;DHT22;2800;49.528;8.666;2023-04-24T10:13:27;10.60;99.90
5554;DHT22;2800;49.528;8.666;2023-04-24T10:15:53;10.70;99.90
5554;DHT22;2800;49.528;8.666;2023-04-24T10:18:20;10.80;99.90
5554;DHT22;2800;49.528;8.666;2023-04-24T10:20:46;10.90;99.90
5554;DHT22;2800;49.528;8.666;2023-04-24T10:23:12;11.00;99.90
5554;DHT22;2800;49.528;8.666;2023-04-24T10:25:38;11.00;99.90
5554;DHT22;2800;49.528;8.666;2023-04-24T10:28:04;11.00;99.90
5554;DHT22;2800;49.528;8.666;2023-04-24T10:30:34;11.00;99.90
5554;DHT22;2800;49.528;8.666;2023-04-24T10:33:04;10.90;99.90
5554;DHT22;2800;49.528;8.666;2023-04-24T10:35:31;11.00;99.90
5554;DHT22;2800;49.528;8.666;2023-04-24T10:38:01;10.90;99.90
5554;DHT22;2800;49.528;8.666;2023-04-24T10:40:35;11.00;99.90
5554;DHT22;2800;49.528;8.666;2023-04-24T10:43:08;11.20;99.90
5554;DHT22;2800;49.528;8.666;2023-04-24T10:45:36;11.30;99.90
5554;DHT22;2800;49.528;8.666;2023-04-24T10:50:42;11.60;99.90
5554;DHT22;2800;49.528;8.666;2023-04-24T10:53:16;11.60;99.90
5554;DHT22;2800;49.528;8.666;2023-04-24T10:55:50;11.80;99.90
5554;DHT22;2800;49.528;8.666;2023-04-24T10:58:21;11.30;99.90
5554;DHT22;2800;49.528;8.666;2023-04-24T11:00:59;11.20;99.90
5554;DHT22;2800;49.528;8.666;2023-04-24T11:03:33;11.10;99.90
5554;DHT22;2800;49.528;8.666;2023-04-24T11:06:09;11.10;99.90
5554;DHT22;2800;49.528;8.666;2023-04-24T11:08:42;10.90;99.90
5554;DHT22;2800;49.528;8.666;2023-04-24T11:11:10;10.80;99.90
5554;DHT22;2800;49.528;8.666;2023-04-24T11:16:33;10.80;99.90
5554;DHT22;2800;49.528;8.666;2023-04-24T11:26:50;11.00;99.90
5554;DHT22;2800;49.528;8.666;2023-04-24T11:29:16;10.90;99.90
5554;DHT22;2800;49.528;8.666;2023-04-24T11:31:44;11.00;99.90
5554;DHT22;2800;49.528;8.666;2023-04-24T11:34:15;11.00;99.90
5554;DHT22;2800;49.528;8.666;2023-04-24T11:36:45;11.00;99.90
5554;DHT22;2800;49.528;8.666;2023-04-24T11:39:11;11.00;99.90
5554;DHT22;2800;49.528;8.666;2023-04-24T11:41:37;11.20;99.90
5554;DHT22;2800;49.528;8.666;2023-04-24T11:44:06;11.20;99.90
5554;DHT22;2800;49.528;8.666;2023-04-24T11:46:32;11.40;99.90
5554;DHT22;2800;49.528;8.666;2023-04-24T11:48:58;11.30;99.90
5554;DHT22;2800;49.528;8.666;2023-04-24T11:51:25;11.50;99.90
5554;DHT22;2800;49.528;8.666;2023-04-24T11:53:52;11.40;99.90
5554;DHT22;2800;49.528;8.666;2023-04-24T11:56:18;11.40;99.90
5554;DHT22;2800;49.528;8.666;2023-04-24T11:58:45;11.60;99.90
5554;DHT22;2800;49.528;8.666;2023-04-24T12:01:11;11.60;99.90
5554;DHT22;2800;49.528;8.666;2023-04-24T12:03:37;11.60;99.90
5554;DHT22;2800;49.528;8.666;2023-04-24T12:06:09;11.60;99.90
5554;DHT22;2800;49.528;8.666;2023-04-24T12:08:35;11.50;99.90
5554;DHT22;2800;49.528;8.666;2023-04-24T12:11:02;11.40;99.90
5554;DHT22;2800;49.528;8.666;2023-04-24T12:13:27;11.40;99.90
5554;DHT22;2800;49.528;8.666;2023-04-24T12:15:53;11.40;99.90
5554;DHT22;2800;49.528;8.666;2023-04-24T12:18:22;11.40;99.90
5554;DHT22;2800;49.528;8.666;2023-04-24T12:20:48;11.80;99.90
5554;DHT22;2800;49.528;8.666;2023-04-24T12:23:13;12.30;99.90
5554;DHT22;2800;49.528;8.666;2023-04-24T12:25:39;12.40;99.90
5554;DHT22;2800;49.528;8.666;2023-04-24T12:30:32;12.30;99.90
5554;DHT22;2800;49.528;8.666;2023-04-24T12:32:59;12.30;99.90
5554;DHT22;2800;49.528;8.666;2023-04-24T12:35:27;12.30;99.90
5554;DHT22;2800;49.528;8.666;2023-04-24T12:37:53;12.60;99.90
5554;DHT22;2800;49.528;8.666;2023-04-24T12:40:20;12.40;99.90
5554;DHT22;2800;49.528;8.666;2023-04-24T12:42:50;12.20;99.90
5554;DHT22;2800;49.528;8.666;2023-04-24T12:45:18;12.10;99.90
5554;DHT22;2800;49.528;8.666;2023-04-24T12:47:45;11.90;99.90
5554;DHT22;2800;49.528;8.666;2023-04-24T12:50:12;11.90;99.90
5554;DHT22;2800;49.528;8.666;2023-04-24T12:52:38;11.80;99.90
5554;DHT22;2800;49.528;8.666;2023-04-24T12:55:05;11.90;99.90
5554;DHT22;2800;49.528;8.666;2023-04-24T12:57:34;11.80;99.90
5554;DHT22;2800;49.528;8.666;2023-04-24T13:00:00;11.80;99.90
5554;DHT22;2800;49.528;8.666;2023-04-24T13:02:27;11.80;99.90
5554;DHT22;2800;49.528;8.666;2023-04-24T13:04:54;11.90;99.90
5554;DHT22;2800;49.528;8.666;2023-04-24T13:07:19;12.00;99.90
5554;DHT22;2800;49.528;8.666;2023-04-24T13:09:47;12.10;99.90
5554;DHT22;2800;49.528;8.666;2023-04-24T13:12:12;12.10;99.90
5554;DHT22;2800;49.528;8.666;2023-04-24T13:14:38;12.10;99.90
5554;DHT22;2800;49.528;8.666;2023-04-24T13:17:04;12.10;99.90
5554;DHT22;2800;49.528;8.666;2023-04-24T13:19:38;12.20;99.90
5554;DHT22;2800;49.528;8.666;2023-04-24T13:22:04;12.30;99.90
5554;DHT22;2800;49.528;8.666;2023-04-24T13:24:31;12.10;99.90
5554;DHT22;2800;49.528;8.666;2023-04-24T13:26:56;12.00;99.90
5554;DHT22;2800;49.528;8.666;2023-04-24T13:29:22;12.00;99.90
5554;DHT22;2800;49.528;8.666;2023-04-24T13:31:50;12.00;99.90
5554;DHT22;2800;49.528;8.666;2023-04-24T13:34:16;11.80;99.90
5554;DHT22;2800;49.528;8.666;2023-04-24T13:36:42;11.80;99.90
5554;DHT22;2800;49.528;8.666;2023-04-24T13:39:08;11.90;99.90
5554;DHT22;2800;49.528;8.666;2023-04-24T13:41:33;12.30;99.90
5554;DHT22;2800;49.528;8.666;2023-04-24T13:44:00;13.40;99.90
5554;DHT22;2800;49.528;8.666;2023-04-24T13:46:25;13.30;99.90
5554;DHT22;2800;49.528;8.666;2023-04-24T13:48:51;13.30;99.90
5554;DHT22;2800;49.528;8.666;2023-04-24T13:51:17;12.80;99.90
5554;DHT22;2800;49.528;8.666;2023-04-24T13:53:43;12.80;99.90
5554;DHT22;2800;49.528;8.666;2023-04-24T13:56:09;12.80;99.90
5554;DHT22;2800;49.528;8.666;2023-04-24T13:58:35;12.90;99.90
5554;DHT22;2800;49.528;8.666;2023-04-24T14:01:02;12.90;99.90
5554;DHT22;2800;49.528;8.666;2023-04-24T14:03:28;12.80;99.90
5554;DHT22;2800;49.528;8.666;2023-04-24T14:05:54;12.80;99.90
5554;DHT22;2800;49.528;8.666;2023-04-24T14:08:19;12.60;99.90
5554;DHT22;2800;49.528;8.666;2023-04-24T14:10:45;12.50;99.90
5554;DHT22;2800;49.528;8.666;2023-04-24T14:13:11;12.40;99.90
5554;DHT22;2800;49.528;8.666;2023-04-24T14:15:36;12.30;99.90
5554;DHT22;2800;49.528;8.666;2023-04-24T14:18:02;12.20;99.90
5554;DHT22;2800;49.528;8.666;2023-04-24T14:20:28;12.20;99.90
5554;DHT22;2800;49.528;8.666;2023-04-24T14:22:54;12.20;99.90
5554;DHT22;2800;49.528;8.666;2023-04-24T14:25:19;12.20;99.90
5554;DHT22;2800;49.528;8.666;2023-04-24T14:27:45;12.20;99.90
5554;DHT22;2800;49.528;8.666;2023-04-24T14:30:12;12.40;99.90
5554;DHT22;2800;49.528;8.666;2023-04-24T14:32:38;12.40;99.90
5554;DHT22;2800;49.528;8.666;2023-04-24T14:35:05;12.30;99.90
5554;DHT22;2800;49.528;8.666;2023-04-24T14:37:31;12.30;99.90
5554;DHT22;2800;49.528;8.666;2023-04-24T14:39:57;12.20;99.90
5554;DHT22;2800;49.528;8.666;2023-04-24T14:42:22;12.30;99.90
5554;DHT22;2800;49.528;8.666;2023-04-24T14:44:48;12.30;99.90
5554;DHT22;2800;49.528;8.666;2023-04-24T14:47:13;12.40;99.90
5554;DHT22;2800;49.528;8.666;2023-04-24T14:49:39;12.40;99.90
5554;DHT22;2800;49.528;8.666;2023-04-24T14:52:05;13.00;99.90
5554;DHT22;2800;49.528;8.666;2023-04-24T14:54:30;13.00;99.90
5554;DHT22;2800;49.528;8.666;2023-04-24T14:56:56;12.90;99.90
5554;DHT22;2800;49.528;8.666;2023-04-24T14:59:24;13.80;99.90
5554;DHT22;2800;49.528;8.666;2023-04-24T15:01:50;14.30;99.90
5554;DHT22;2800;49.528;8.666;2023-04-24T15:04:16;13.70;99.90
5554;DHT22;2800;49.528;8.666;2023-04-24T15:06:42;13.90;99.90
5554;DHT22;2800;49.528;8.666;2023-04-24T15:09:07;13.70;99.90
5554;DHT22;2800;49.528;8.666;2023-04-24T15:11:33;13.00;99.90
5554;DHT22;2800;49.528;8.666;2023-04-24T15:13:58;12.60;99.90
5554;DHT22;2800;49.528;8.666;2023-04-24T15:16:24;12.40;99.90
5554;DHT22;2800;49.528;8.666;2023-04-24T15:18:50;12.20;99.90
5554;DHT22;2800;49.528;8.666;2023-04-24T15:21:16;12.00;99.90
5554;DHT22;2800;49.528;8.666;2023-04-24T15:23:41;11.90;99.90
5554;DHT22;2800;49.528;8.666;2023-04-24T15:26:07;11.80;99.90
5554;DHT22;2800;49.528;8.666;2023-04-24T15:28:32;11.50;99.90
5554;DHT22;2800;49.528;8.666;2023-04-24T15:30:58;11.50;99.90
5554;DHT22;2800;49.528;8.666;2023-04-24T15:33:23;11.40;99.90
5554;DHT22;2800;49.528;8.666;2023-04-24T15:35:49;11.30;99.90
5554;DHT22;2800;49.528;8.666;2023-04-24T15:38:15;11.40;99.90
5554;DHT22;2800;49.528;8.666;2023-04-24T15:40:41;11.50;99.90
5554;DHT22;2800;49.528;8.666;2023-04-24T15:43:06;11.70;99.90
5554;DHT22;2800;49.528;8.666;2023-04-24T15:45:32;12.60;99.90
5554;DHT22;2800;49.528;8.666;2023-04-24T15:47:58;12.80;99.90
5554;DHT22;2800;49.528;8.666;2023-04-24T15:50:23;13.70;99.90
5554;DHT22;2800;49.528;8.666;2023-04-24T15:52:49;14.10;99.90
5554;DHT22;2800;49.528;8.666;2023-04-24T15:55:15;14.10;99.90
5554;DHT22;2800;49.528;8.666;2023-04-24T15:57:41;13.40;99.90
5554;DHT22;2800;49.528;8.666;2023-04-24T16:00:07;13.20;99.90
5554;DHT22;2800;49.528;8.666;2023-04-24T16:02:36;13.20;99.90
5554;DHT22;2800;49.528;8.666;2023-04-24T16:05:02;12.90;99.90
5554;DHT22;2800;49.528;8.666;2023-04-24T16:07:27;12.60;99.90
5554;DHT22;2800;49.528;8.666;2023-04-24T16:09:53;12.70;99.90
5554;DHT22;2800;49.528;8.666;2023-04-24T16:12:18;12.60;99.90
5554;DHT22;2800;49.528;8.666;2023-04-24T16:14:44;12.40;99.90